createdAt,value
2023-05-12T00:00:25.644Z,809.1539
2023-05-12T00:01:26.699Z,806.4615
2023-05-12T00:02:28.432Z,799.1539
2023-05-12T00:03:30.589Z,806.4615
2023-05-12T00:04:31.727Z,807.1539
2023-05-12T00:05:33.269Z,811.8461
2023-05-12T00:06:34.935Z,802.3846
2023-05-12T00:07:36.614Z,809.8461
2023-05-12T00:08:38.237Z,809.6154
2023-05-12T00:09:39.888Z,806.5385
2023-05-12T00:10:41.494Z,800.3077
2023-05-12T00:11:43.163Z,798.0769
2023-05-12T00:12:44.790Z,799.8461
2023-05-12T00:13:46.684Z,803.5385
2023-05-12T00:14:48.238Z,799.2308
2023-05-12T00:15:49.873Z,801.0000
2023-05-12T00:16:51.734Z,801.8461
2023-05-12T00:17:53.274Z,799.8461
2023-05-12T00:18:54.855Z,801.0000
2023-05-12T00:19:56.915Z,799.3846
2023-05-12T00:20:58.983Z,800.0769
2023-05-12T00:21:59.748Z,800.6154
2023-05-12T00:23:01.343Z,800.5385
2023-05-12T00:24:03.094Z,799.5385
2023-05-12T00:25:04.702Z,791.5385
2023-05-12T00:26:06.311Z,792.5385
2023-05-12T00:27:07.905Z,795.2308
2023-05-12T00:28:09.698Z,792.7692
2023-05-12T00:29:11.318Z,799.0769
2023-05-12T00:30:12.939Z,796.0000
2023-05-12T00:31:14.551Z,799.2308
2023-05-12T00:32:16.199Z,793.6154
2023-05-12T00:33:17.835Z,793.7692
2023-05-12T00:34:19.593Z,792.1539
2023-05-12T00:35:21.086Z,787.5385
2023-05-12T00:36:22.806Z,786.1539
2023-05-12T00:37:24.406Z,785.0000
2023-05-12T00:38:26.057Z,788.1539
2023-05-12T00:39:27.796Z,784.3077
2023-05-12T00:40:29.398Z,784.4615
2023-05-12T00:41:30.999Z,790.8461
2023-05-12T00:42:32.725Z,789.3077
2023-05-12T00:43:34.329Z,785.6923
2023-05-12T00:44:36.000Z,790.7692
2023-05-12T00:45:37.718Z,793.9231
2023-05-12T00:46:39.240Z,789.5385
2023-05-12T00:47:40.917Z,783.1539
2023-05-12T00:48:42.570Z,784.0769
2023-05-12T00:49:44.284Z,786.6154
2023-05-12T00:50:45.901Z,786.3846
2023-05-12T00:51:47.513Z,787.8461
2023-05-12T00:52:49.189Z,786.3077
2023-05-12T00:53:50.933Z,791.9231
2023-05-12T00:54:52.606Z,790.0769
2023-05-12T00:55:54.161Z,790.0769
2023-05-12T00:56:55.930Z,792.2308
2023-05-12T00:57:57.482Z,790.5385
2023-05-12T00:58:59.133Z,792.5385
2023-05-12T01:00:00.862Z,793.0000
2023-05-12T01:01:02.468Z,792.6154
2023-05-12T01:02:04.061Z,799.1539
2023-05-12T01:03:05.923Z,794.1539
2023-05-12T01:04:07.372Z,793.6154
2023-05-12T01:05:09.088Z,796.1539
2023-05-12T01:06:10.641Z,793.8461
2023-05-12T01:07:12.336Z,798.2308
2023-05-12T01:08:13.925Z,792.2308
2023-05-12T01:09:15.622Z,793.0769
2023-05-12T01:10:17.373Z,793.4615
2023-05-12T01:11:18.897Z,800.6923
2023-05-12T01:12:20.505Z,798.3846
2023-05-12T01:13:22.218Z,801.0000
2023-05-12T01:14:23.938Z,802.5385
2023-05-12T01:15:25.645Z,800.4615
2023-05-12T01:16:27.123Z,803.9231
2023-05-12T01:17:28.897Z,798.4615
2023-05-12T01:18:30.566Z,802.2308
2023-05-12T01:19:32.172Z,798.6923
2023-05-12T01:20:33.730Z,797.1539
2023-05-12T01:21:35.482Z,795.6923
2023-05-12T01:22:37.909Z,797.5385
2023-05-12T01:23:38.712Z,799.8461
2023-05-12T01:24:40.399Z,798.2308
2023-05-12T01:25:42.049Z,802.3077
2023-05-12T01:26:43.675Z,805.0000
2023-05-12T01:27:45.396Z,802.0000
2023-05-12T01:28:46.960Z,797.1539
2023-05-12T01:29:48.665Z,792.6154
2023-05-12T01:30:50.366Z,799.6923
2023-05-12T01:31:51.902Z,804.7692
2023-05-12T01:32:53.571Z,797.0000
2023-05-12T01:33:55.189Z,796.6154
2023-05-12T01:34:56.854Z,798.0000
2023-05-12T01:35:58.562Z,797.7692
2023-05-12T01:37:00.164Z,797.6923
2023-05-12T01:38:02.138Z,799.0000
2023-05-12T01:39:03.455Z,799.1539
2023-05-12T01:40:05.071Z,794.7692
2023-05-12T01:41:06.788Z,796.7692
2023-05-12T01:42:08.444Z,793.0769
2023-05-12T01:43:10.070Z,793.2308
2023-05-12T01:44:11.699Z,794.0769
2023-05-12T01:45:13.358Z,794.2308
2023-05-12T01:46:15.503Z,792.1539
2023-05-12T01:47:16.713Z,793.7692
2023-05-12T01:48:18.272Z,796.7692
2023-05-12T01:49:19.950Z,800.2308
2023-05-12T01:50:21.800Z,791.3846
2023-05-12T01:51:23.346Z,793.2308
2023-05-12T01:52:24.907Z,796.6923
2023-05-12T01:53:26.615Z,791.0000
2023-05-12T01:54:28.184Z,794.6923
2023-05-12T01:55:29.846Z,793.5385
2023-05-12T01:56:32.480Z,790.0769
2023-05-12T01:57:33.130Z,788.7692
2023-05-12T01:58:34.804Z,790.7692
2023-05-12T01:59:36.398Z,799.0769
2023-05-12T02:00:38.172Z,796.2308
2023-05-12T02:01:39.750Z,789.9231
2023-05-12T02:02:43.071Z,790.0769
2023-05-12T02:03:43.166Z,790.3846
2023-05-12T02:04:44.750Z,791.4615
2023-05-12T02:05:46.275Z,780.3077
2023-05-12T02:06:47.996Z,789.7692
2023-05-12T02:07:49.627Z,788.6923
2023-05-12T02:08:51.967Z,797.0000
2023-05-12T02:09:52.859Z,793.2308
2023-05-12T02:10:54.553Z,801.9231
2023-05-12T02:11:56.282Z,793.7692
2023-05-12T02:12:57.912Z,792.9231
2023-05-12T02:13:59.462Z,791.2308
2023-05-12T02:15:01.231Z,798.7692
2023-05-12T02:16:02.898Z,793.5385
2023-05-12T02:17:04.548Z,795.3077
2023-05-12T02:18:06.175Z,799.1539
2023-05-12T02:19:07.805Z,796.4615
2023-05-12T02:20:09.397Z,794.5385
2023-05-12T02:21:11.037Z,799.3077
2023-05-12T02:22:12.689Z,800.5385
2023-05-12T02:23:14.347Z,799.0000
2023-05-12T02:24:15.918Z,798.9231
2023-05-12T02:25:17.606Z,801.3846
2023-05-12T02:26:19.194Z,804.1539
2023-05-12T02:27:20.938Z,804.3846
2023-05-12T02:28:22.567Z,802.4615
2023-05-12T02:29:24.239Z,805.9231
2023-05-12T02:30:25.823Z,805.4615
2023-05-12T02:31:27.605Z,797.5385
2023-05-12T02:32:29.505Z,802.9231
2023-05-12T02:33:30.819Z,802.3077
2023-05-12T02:34:32.475Z,808.0769
2023-05-12T02:35:34.096Z,806.5385
2023-05-12T02:36:35.727Z,809.7692
2023-05-12T02:37:37.505Z,813.2308
2023-05-12T02:38:39.001Z,807.3077
2023-05-12T02:39:40.680Z,807.8461
2023-05-12T02:40:42.324Z,813.3846
2023-05-12T02:41:44.955Z,807.5385
2023-05-12T02:42:45.588Z,810.6923
2023-05-12T02:43:47.206Z,821.5385
2023-05-12T02:44:48.855Z,829.5385
2023-05-12T02:45:50.642Z,821.7692
2023-05-12T02:46:52.120Z,820.0000
2023-05-12T02:47:53.926Z,812.0769
2023-05-12T02:48:55.479Z,800.3846
2023-05-12T02:49:57.104Z,808.0769
2023-05-12T02:50:58.720Z,807.9231
2023-05-12T02:52:00.418Z,807.9231
2023-05-12T02:53:02.085Z,805.7692
2023-05-12T02:54:03.674Z,806.6154
2023-05-12T02:55:05.359Z,823.6154
2023-05-12T02:56:06.992Z,836.3077
2023-05-12T02:57:08.639Z,863.0000
2023-05-12T02:58:10.307Z,867.3077
2023-05-12T02:59:11.945Z,864.8461
2023-05-12T03:00:13.580Z,864.5385
2023-05-12T03:01:15.212Z,857.0000
2023-05-12T03:02:16.892Z,861.8461
2023-05-12T03:03:18.553Z,866.2308
2023-05-12T03:04:20.142Z,863.1539
2023-05-12T03:05:21.803Z,870.4615
2023-05-12T03:06:23.460Z,867.0769
2023-05-12T03:07:25.146Z,862.9231
2023-05-12T03:08:26.818Z,864.2308
2023-05-12T03:09:28.370Z,867.7692
2023-05-12T03:10:30.051Z,866.6923
2023-05-12T03:11:31.652Z,873.2308
2023-05-12T03:12:33.288Z,871.8461
2023-05-12T03:13:35.440Z,863.9231
2023-05-12T03:14:36.657Z,868.2308
2023-05-12T03:15:38.237Z,866.5385
2023-05-12T03:16:40.553Z,867.8461
2023-05-12T03:17:41.581Z,861.5385
2023-05-12T03:18:43.229Z,865.0000
2023-05-12T03:19:44.802Z,873.7692
2023-05-12T03:20:46.518Z,872.7692
2023-05-12T03:21:48.084Z,873.0000
2023-05-12T03:22:49.770Z,875.2308
2023-05-12T03:23:51.452Z,875.4615
2023-05-12T03:24:53.072Z,871.6923
2023-05-12T03:25:54.668Z,875.2308
2023-05-12T03:26:56.320Z,877.3846
2023-05-12T03:27:57.972Z,871.9231
2023-05-12T03:28:59.674Z,878.1539
2023-05-12T03:30:01.252Z,880.6154
2023-05-12T03:31:03.117Z,882.4615
2023-05-12T03:32:04.585Z,874.4615
2023-05-12T03:33:06.253Z,878.5385
2023-05-12T03:34:07.915Z,872.7692
2023-05-12T03:35:09.633Z,875.3077
2023-05-12T03:36:11.139Z,877.6154
2023-05-12T03:37:12.859Z,885.7692
2023-05-12T03:38:14.440Z,882.1539
2023-05-12T03:39:16.191Z,880.9231
2023-05-12T03:40:18.975Z,886.0769
2023-05-12T03:41:19.407Z,883.2308
2023-05-12T03:42:21.048Z,885.2308
2023-05-12T03:43:22.761Z,886.3846
2023-05-12T03:44:24.363Z,878.0769
2023-05-12T03:45:26.062Z,887.0000
2023-05-12T03:46:27.661Z,884.9231
2023-05-12T03:47:29.463Z,885.2308
2023-05-12T03:48:30.971Z,873.7692
2023-05-12T03:49:32.567Z,873.9231
2023-05-12T03:50:34.258Z,875.1539
2023-05-12T03:51:35.978Z,871.3077
2023-05-12T03:52:37.513Z,875.3077
2023-05-12T03:53:39.188Z,878.6923
2023-05-12T03:54:40.809Z,878.8461
2023-05-12T03:55:42.965Z,879.7692
2023-05-12T03:56:44.133Z,880.7692
2023-05-12T03:57:45.744Z,879.3846
2023-05-12T03:58:47.436Z,876.4615
2023-05-12T03:59:49.102Z,876.0000
2023-05-12T04:00:50.732Z,879.9231
2023-05-12T04:01:52.392Z,885.1539
2023-05-12T04:02:54.038Z,875.2308
2023-05-12T04:03:55.729Z,873.6923
2023-05-12T04:04:57.281Z,877.4615
2023-05-12T04:05:58.967Z,878.3077
2023-05-12T04:07:00.650Z,877.4615
2023-05-12T04:08:02.228Z,879.5385
2023-05-12T04:09:03.896Z,878.0000
2023-05-12T04:10:05.540Z,884.6923
2023-05-12T04:11:07.481Z,880.7692
2023-05-12T04:12:08.793Z,887.9231
2023-05-12T04:13:10.460Z,884.8461
2023-05-12T04:14:12.083Z,884.3077
2023-05-12T04:15:13.799Z,883.4615
2023-05-12T04:16:15.524Z,891.3077
2023-05-12T04:17:17.041Z,884.9231
2023-05-12T04:18:18.697Z,885.4615
2023-05-12T04:19:20.329Z,884.8461
2023-05-12T04:20:22.121Z,884.6923
2023-05-12T04:21:24.494Z,880.9231
2023-05-12T04:22:25.817Z,890.0769
2023-05-12T04:23:26.945Z,884.8461
2023-05-12T04:24:28.648Z,886.3846
2023-05-12T04:25:30.234Z,889.7692
2023-05-12T04:26:31.872Z,892.5385
2023-05-12T04:27:33.526Z,894.3846
2023-05-12T04:28:35.176Z,891.0000
2023-05-12T04:29:36.825Z,893.2308
2023-05-12T04:30:38.470Z,888.9231
2023-05-12T04:31:40.177Z,893.9231
2023-05-12T04:32:41.789Z,891.8461
2023-05-12T04:33:43.464Z,894.6154
2023-05-12T04:34:45.951Z,892.7692
2023-05-12T04:35:47.453Z,899.4615
2023-05-12T04:36:48.389Z,887.6154
2023-05-12T04:37:50.973Z,895.3846
2023-05-12T04:38:51.699Z,889.2308
2023-05-12T04:39:53.280Z,894.6923
2023-05-12T04:40:54.914Z,900.1539
2023-05-12T04:41:56.666Z,895.8461
2023-05-12T04:42:58.232Z,896.4615
2023-05-12T04:44:00.380Z,902.2308
2023-05-12T04:45:01.505Z,900.3077
2023-05-12T04:46:03.222Z,903.0769
2023-05-12T04:47:04.875Z,906.4615
2023-05-12T04:48:07.501Z,911.6923
2023-05-12T04:49:09.095Z,904.8461
2023-05-12T04:50:09.950Z,899.7692
2023-05-12T04:51:11.604Z,899.3846
2023-05-12T04:52:13.228Z,919.3077
2023-05-12T04:53:14.828Z,912.0769
2023-05-12T04:54:16.495Z,920.6923
2023-05-12T04:55:18.429Z,931.3846
2023-05-12T04:56:19.883Z,929.8461
2023-05-12T04:57:21.653Z,929.3846
2023-05-12T04:58:23.141Z,945.0769
2023-05-12T04:59:24.731Z,948.6154
2023-05-12T05:00:26.516Z,946.9231
2023-05-12T05:01:28.106Z,919.2308
2023-05-12T05:02:30.270Z,923.5385
2023-05-12T05:03:31.492Z,954.7692
2023-05-12T05:04:33.047Z,971.6923
2023-05-12T05:05:34.658Z,990.4615
2023-05-12T05:06:36.306Z,961.4615
2023-05-12T05:07:38.947Z,960.6154
2023-05-12T05:08:40.443Z,950.9231
2023-05-12T05:09:41.291Z,976.0769
2023-05-12T05:10:42.868Z,994.4615
2023-05-12T05:11:44.586Z,999.3846
2023-05-12T05:12:46.171Z,975.4615
2023-05-12T05:13:47.841Z,962.2308
2023-05-12T05:14:50.425Z,989.7692
2023-05-12T05:15:51.295Z,1001.0769
2023-05-12T05:16:52.750Z,1010.2308
2023-05-12T05:17:54.647Z,1001.5385
2023-05-12T05:18:57.614Z,1007.6154
2023-05-12T05:19:59.226Z,987.0000
2023-05-12T05:20:59.522Z,1009.4615
2023-05-12T05:22:01.021Z,1024.8462
2023-05-12T05:23:02.724Z,1032.5385
2023-05-12T05:24:04.346Z,1016.0769
2023-05-12T05:25:05.930Z,1010.0000
2023-05-12T05:26:07.667Z,1006.3846
2023-05-12T05:27:09.230Z,1030.1538
2023-05-12T05:28:10.966Z,1036.2307
2023-05-12T05:29:12.548Z,1033.3846
2023-05-12T05:30:14.256Z,1019.6923
2023-05-12T05:31:15.866Z,1004.6154
2023-05-12T05:32:17.499Z,1016.2308
2023-05-12T05:33:19.250Z,1044.5385
2023-05-12T05:34:20.812Z,1055.7693
2023-05-12T05:35:22.635Z,1045.3846
2023-05-12T05:36:24.046Z,1030.6923
2023-05-12T05:37:25.717Z,1024.1538
2023-05-12T05:38:28.225Z,1049.9231
2023-05-12T05:39:28.958Z,1067.0000
2023-05-12T05:40:38.536Z,1069.1538
2023-05-12T05:41:32.471Z,1059.1538
2023-05-12T05:42:34.058Z,1032.6154
2023-05-12T05:43:35.623Z,1041.6923
2023-05-12T05:44:37.182Z,1072.3846
2023-05-12T05:45:38.888Z,1076.2307
2023-05-12T05:46:40.547Z,1068.9231
2023-05-12T05:47:42.220Z,1059.6923
2023-05-12T05:48:43.859Z,1054.4615
2023-05-12T05:49:45.468Z,1067.5385
2023-05-12T05:50:47.089Z,1080.4615
2023-05-12T05:51:48.751Z,1089.6154
2023-05-12T05:52:50.404Z,1069.9231
2023-05-12T05:53:52.107Z,1067.1538
2023-05-12T05:54:53.714Z,1066.0000
2023-05-12T05:55:55.694Z,1085.1538
2023-05-12T05:56:57.264Z,1103.9231
2023-05-12T05:57:58.710Z,1084.3077
2023-05-12T05:59:00.272Z,1067.5385
2023-05-12T06:00:01.999Z,1057.5385
2023-05-12T06:01:04.091Z,1081.0000
2023-05-12T06:02:05.294Z,1106.7693
2023-05-12T06:03:06.991Z,1108.9231
2023-05-12T06:04:09.544Z,1101.9231
2023-05-12T06:05:10.146Z,1079.6923
2023-05-12T06:06:12.957Z,1069.3077
2023-05-12T06:07:13.452Z,1088.3077
2023-05-12T06:08:15.035Z,1115.7693
2023-05-12T06:09:16.734Z,1109.5385
2023-05-12T06:10:18.622Z,1107.5385
2023-05-12T06:11:19.983Z,1088.7693
2023-05-12T06:12:21.570Z,1094.8462
2023-05-12T06:13:23.245Z,1113.1538
2023-05-12T06:14:25.100Z,1131.6154
2023-05-12T06:15:26.584Z,1122.7693
2023-05-12T06:16:28.240Z,1120.5385
2023-05-12T06:17:32.066Z,1089.6923
2023-05-12T06:18:31.490Z,1102.1538
2023-05-12T06:19:33.722Z,1125.1538
2023-05-12T06:20:34.769Z,1138.3846
2023-05-12T06:21:36.428Z,1121.4615
2023-05-12T06:22:38.056Z,1126.9231
2023-05-12T06:23:39.774Z,1106.6154
2023-05-12T06:24:41.401Z,1117.0000
2023-05-12T06:25:43.029Z,1128.1538
2023-05-12T06:26:44.675Z,1139.3077
2023-05-12T06:27:46.316Z,1129.0769
2023-05-12T06:28:47.984Z,1119.6154
2023-05-12T06:29:49.604Z,1093.4615
2023-05-12T06:30:51.220Z,1103.9231
2023-05-12T06:31:52.902Z,1122.5385
2023-05-12T06:32:54.519Z,1129.3846
2023-05-12T06:33:56.159Z,1112.5385
2023-05-12T06:34:57.846Z,1096.9231
2023-05-12T06:35:59.543Z,1071.6154
2023-05-12T06:37:01.074Z,1099.0000
2023-05-12T06:38:02.805Z,1116.1538
2023-05-12T06:39:04.418Z,1119.5385
2023-05-12T06:40:06.072Z,1091.0769
2023-05-12T06:41:08.669Z,1072.2307
2023-05-12T06:42:09.385Z,1075.9231
2023-05-12T06:43:10.978Z,1103.0769
2023-05-12T06:44:12.643Z,1110.9231
2023-05-12T06:45:14.287Z,1112.6154
2023-05-12T06:46:16.030Z,1090.3846
2023-05-12T06:47:17.544Z,1074.0000
2023-05-12T06:48:19.172Z,1067.0000
2023-05-12T06:49:20.796Z,1103.1538
2023-05-12T06:50:22.572Z,1109.3846
2023-05-12T06:51:24.135Z,1173.3077
2023-05-12T06:52:26.490Z,1087.6154
2023-05-12T06:53:27.371Z,1068.8462
2023-05-12T06:54:29.144Z,1072.9231
2023-05-12T06:55:30.717Z,1093.2307
2023-05-12T06:56:32.453Z,1106.2307
2023-05-12T06:57:34.047Z,1144.5385
2023-05-12T06:58:35.619Z,1079.0000
2023-05-12T06:59:37.304Z,1061.2307
2023-05-12T07:00:39.669Z,1064.6923
2023-05-12T07:01:40.691Z,1105.5385
2023-05-12T07:02:42.280Z,1094.5385
2023-05-12T07:03:43.855Z,1130.4615
2023-05-12T07:04:45.625Z,1071.2307
2023-05-12T07:05:47.189Z,1052.4615
2023-05-12T07:06:48.912Z,1057.6154
2023-05-12T07:07:50.576Z,1092.2307
2023-05-12T07:08:52.157Z,1089.3846
2023-05-12T07:09:53.738Z,1128.0769
2023-05-12T07:10:55.467Z,1063.0000
2023-05-12T07:11:57.126Z,1041.8462
2023-05-12T07:12:58.722Z,1052.2307
2023-05-12T07:14:00.377Z,1072.1538
2023-05-12T07:15:02.017Z,1083.2307
2023-05-12T07:16:03.626Z,1124.3077
2023-05-12T07:17:05.242Z,1062.2307
2023-05-12T07:18:06.991Z,1046.1538
2023-05-12T07:19:08.672Z,1059.6154
2023-05-12T07:20:10.172Z,1069.8462
2023-05-12T07:21:11.867Z,1092.4615
2023-05-12T07:22:16.179Z,1116.6923
2023-05-12T07:23:15.049Z,1052.6923
2023-05-12T07:24:16.708Z,1037.5385
2023-05-12T07:25:19.150Z,1060.2307
2023-05-12T07:26:21.648Z,1071.6923
2023-05-12T07:27:21.624Z,1072.7693
2023-05-12T07:28:23.276Z,1109.9231
2023-05-12T07:29:24.914Z,1043.4615
2023-05-12T07:30:26.660Z,1029.6923
2023-05-12T07:31:29.197Z,1042.4615
2023-05-12T07:32:29.920Z,1089.8462
2023-05-12T07:33:32.683Z,1085.3077
2023-05-12T07:34:33.208Z,1109.2307
2023-05-12T07:35:34.949Z,1040.8462
2023-05-12T07:36:36.574Z,1018.4615
2023-05-12T07:37:38.356Z,1035.2307
2023-05-12T07:38:39.905Z,1074.4615
2023-05-12T07:39:41.554Z,1079.0000
2023-05-12T07:40:43.140Z,1113.8462
2023-05-12T07:41:44.876Z,1038.0000
2023-05-12T07:42:46.429Z,1021.7692
2023-05-12T07:43:48.276Z,1050.6154
2023-05-12T07:44:49.706Z,1080.9231
2023-05-12T07:45:51.441Z,1087.9231
2023-05-12T07:46:54.100Z,1133.0769
2023-05-12T07:47:55.557Z,1043.9231
2023-05-12T07:48:56.266Z,1028.2307
2023-05-12T07:49:58.693Z,1033.4615
2023-05-12T07:50:59.543Z,1060.6154
2023-05-12T07:52:01.270Z,1070.3846
2023-05-12T07:53:02.856Z,1146.3077
2023-05-12T07:54:04.540Z,1045.3846
2023-05-12T07:55:06.158Z,1017.6154
2023-05-12T07:56:07.861Z,1034.5385
2023-05-12T07:57:09.478Z,1061.3077
2023-05-12T07:58:11.059Z,1075.9231
2023-05-12T07:59:12.754Z,1114.3846
2023-05-12T08:00:14.413Z,1035.9231
2023-05-12T08:01:16.109Z,1017.8461
2023-05-12T08:02:18.202Z,1026.3846
2023-05-12T08:03:19.403Z,1049.4615
2023-05-12T08:04:21.027Z,1071.1538
2023-05-12T08:05:22.701Z,1130.0000
2023-05-12T08:06:25.026Z,1035.7693
2023-05-12T08:07:26.195Z,1018.8461
2023-05-12T08:08:27.516Z,1033.2307
2023-05-12T08:09:29.221Z,1058.9231
2023-05-12T08:10:30.843Z,1070.1538
2023-05-12T08:11:32.475Z,1119.3846
2023-05-12T08:12:34.131Z,1027.7693
2023-05-12T08:13:35.733Z,1024.0000
2023-05-12T08:14:37.335Z,1052.0000
2023-05-12T08:15:39.045Z,1052.1538
2023-05-12T08:16:40.739Z,1068.8462
2023-05-12T08:17:42.359Z,1125.6154
2023-05-12T08:18:43.986Z,1041.7693
2023-05-12T08:19:45.571Z,1016.4615
2023-05-12T08:20:47.249Z,1014.7692
2023-05-12T08:21:48.878Z,1054.9231
2023-05-12T08:22:52.173Z,1070.5385
2023-05-12T08:23:53.209Z,1095.7693
2023-05-12T08:24:54.044Z,1035.5385
2023-05-12T08:25:55.600Z,1013.8461
2023-05-12T08:26:57.359Z,1013.8461
2023-05-12T08:27:58.976Z,1055.2307
2023-05-12T08:29:00.599Z,1047.7693
2023-05-12T08:30:02.223Z,1050.8462
2023-05-12T08:31:05.127Z,1054.6923
2023-05-12T08:32:05.421Z,1014.8461
2023-05-12T08:33:07.213Z,1006.8461
2023-05-12T08:34:10.906Z,1042.8462
2023-05-12T08:35:10.391Z,1059.8462
2023-05-12T08:36:11.987Z,1064.3077
2023-05-12T08:37:13.783Z,1046.4615
2023-05-12T08:38:15.662Z,1013.6923
2023-05-12T08:39:16.957Z,993.3077
2023-05-12T08:40:18.571Z,1008.6154
2023-05-12T08:41:20.257Z,1048.1538
2023-05-12T08:42:21.960Z,1053.1538
2023-05-12T08:43:23.624Z,1056.3077
2023-05-12T08:44:25.172Z,1023.7692
2023-05-12T08:45:26.913Z,998.7692
2023-05-12T08:46:28.509Z,1003.9231
2023-05-12T08:47:30.145Z,1054.8462
2023-05-12T08:48:31.788Z,1069.0769
2023-05-12T08:49:33.495Z,1056.2307
2023-05-12T08:50:35.128Z,1041.0769
2023-05-12T08:51:36.721Z,1009.5385
2023-05-12T08:52:38.363Z,996.0769
2023-05-12T08:53:40.057Z,1030.6154
2023-05-12T08:54:52.414Z,1059.6923
2023-05-12T08:55:48.224Z,1059.0769
2023-05-12T08:57:46.627Z,1023.0769
2023-05-12T08:58:48.222Z,999.7692
2023-05-12T08:59:49.969Z,1040.5385
2023-05-12T09:00:51.604Z,1066.3077
2023-05-12T09:01:53.363Z,1071.8462
2023-05-12T09:02:55.118Z,1094.3846
2023-05-12T09:03:56.598Z,1025.8462
2023-05-12T09:04:58.192Z,999.3077
2023-05-12T09:05:59.836Z,1024.8462
2023-05-12T09:07:01.459Z,1050.3846
2023-05-12T09:08:03.112Z,1056.2307
2023-05-12T09:09:04.763Z,1091.4615
2023-05-12T09:10:06.419Z,1022.7692
2023-05-12T09:11:08.086Z,1004.8461
2023-05-12T09:12:10.556Z,1033.3077
2023-05-12T09:13:11.343Z,1065.0000
2023-05-12T09:14:13.049Z,1064.2307
2023-05-12T09:15:14.729Z,1085.0769
2023-05-12T09:16:16.334Z,1030.0000
2023-05-12T09:17:17.992Z,1006.6923
2023-05-12T09:18:19.623Z,1014.3077
2023-05-12T09:19:21.186Z,1047.7693
2023-05-12T09:20:30.818Z,1058.0769
2023-05-12T09:21:24.438Z,1103.3334
2023-05-12T09:22:26.084Z,1037.3846
2023-05-12T09:23:27.742Z,1015.5385
2023-05-12T09:24:29.387Z,1026.6154
2023-05-12T09:25:31.078Z,1050.7693
2023-05-12T09:26:32.704Z,1068.8462
2023-05-12T09:27:34.389Z,1113.7693
2023-05-12T09:28:36.020Z,1041.3846
2023-05-12T09:29:45.310Z,1016.8461
2023-05-12T09:30:39.317Z,1018.4615
2023-05-12T09:31:40.959Z,1059.7693
2023-05-12T09:32:42.548Z,1074.7693
2023-05-12T09:33:44.217Z,1088.3077
2023-05-12T09:34:46.595Z,1025.1538
2023-05-12T09:35:47.543Z,1010.4615
2023-05-12T09:36:49.156Z,1019.6923
2023-05-12T09:37:51.846Z,1057.6154
2023-05-12T09:38:52.595Z,1098.6923
2023-05-12T09:39:54.192Z,1087.5385
2023-05-12T09:40:55.873Z,1022.7692
2023-05-12T09:41:57.552Z,1009.0000
2023-05-12T09:42:59.144Z,1025.8462
2023-05-12T09:44:00.894Z,1055.0769
2023-05-12T09:45:02.478Z,1090.8462
2023-05-12T09:46:04.139Z,1057.4615
2023-05-12T09:47:05.800Z,1029.2307
2023-05-12T09:48:07.442Z,1013.3846
2023-05-12T09:49:09.111Z,1025.5385
2023-05-12T09:50:10.741Z,1064.7693
2023-05-12T09:51:12.376Z,1112.8462
2023-05-12T09:52:14.036Z,1045.2307
2023-05-12T09:53:15.709Z,1014.3077
2023-05-12T09:54:18.281Z,1001.1539
2023-05-12T09:55:19.068Z,1049.9231
2023-05-12T09:56:20.645Z,1053.3077
2023-05-12T09:57:22.248Z,1107.6154
2023-05-12T09:58:23.891Z,1025.5385
2023-05-12T09:59:25.576Z,1014.0000
2023-05-12T10:00:41.293Z,1023.1539
2023-05-12T10:01:28.873Z,1068.8462
2023-05-12T10:02:30.725Z,1121.9231
2023-05-12T10:03:32.099Z,1088.1538
2023-05-12T10:04:33.802Z,1032.5385
2023-05-12T10:05:35.400Z,1021.4615
2023-05-12T10:06:37.748Z,1037.5385
2023-05-12T10:07:38.802Z,1084.5385
2023-05-12T10:08:40.509Z,1116.1538
2023-05-12T10:09:41.999Z,1060.6923
2023-05-12T10:10:43.612Z,1026.5385
2023-05-12T10:11:45.348Z,1011.3846
2023-05-12T10:12:46.957Z,1033.5385
2023-05-12T10:13:48.597Z,1088.0000
2023-05-12T10:14:50.207Z,1121.0000
2023-05-12T10:15:51.954Z,1055.2307
2023-05-12T10:16:54.268Z,1011.5385
2023-05-12T10:17:55.264Z,1008.3077
2023-05-12T10:18:56.898Z,1044.3077
2023-05-12T10:19:58.449Z,1090.6154
2023-05-12T10:21:00.240Z,1111.3846
2023-05-12T10:22:02.346Z,1044.8462
2023-05-12T10:23:03.419Z,1029.7693
2023-05-12T10:24:05.053Z,1020.6923
2023-05-12T10:25:06.673Z,1029.3077
2023-05-12T10:26:08.337Z,1079.5385
2023-05-12T10:27:10.752Z,1096.5385
2023-05-12T10:28:11.784Z,1043.6154
2023-05-12T10:29:13.296Z,1018.3077
2023-05-12T10:30:14.944Z,1024.6154
2023-05-12T10:31:16.712Z,1071.7693
2023-05-12T10:32:19.292Z,1097.3846
2023-05-12T10:33:20.358Z,1088.7693
2023-05-12T10:34:21.662Z,1031.3077
2023-05-12T10:35:23.171Z,1015.0000
2023-05-12T10:36:24.844Z,1039.4615
2023-05-12T10:37:27.216Z,1086.0000
2023-05-12T10:38:28.158Z,1096.5385
2023-05-12T10:39:29.718Z,1055.0000
2023-05-12T10:40:32.381Z,1028.4615
2023-05-12T10:41:33.049Z,1022.1539
2023-05-12T10:42:35.275Z,1030.3846
2023-05-12T10:43:36.372Z,1080.7693
2023-05-12T10:44:38.022Z,1092.6923
2023-05-12T10:45:39.663Z,1031.4615
2023-05-12T10:46:41.317Z,1010.2308
2023-05-12T10:47:43.059Z,1009.4615
2023-05-12T10:48:44.597Z,1041.6154
2023-05-12T10:49:46.264Z,1095.1538
2023-05-12T10:50:47.858Z,1139.3077
2023-05-12T10:51:49.524Z,1021.0000
2023-05-12T10:52:51.172Z,995.5385
2023-05-12T10:53:54.860Z,1014.4615
2023-05-12T10:54:54.509Z,1041.3077
2023-05-12T10:55:56.288Z,1068.8462
2023-05-12T10:56:57.964Z,1111.7693
2023-05-12T10:58:00.154Z,1015.7692
2023-05-12T10:59:01.468Z,1001.3846
2023-05-12T11:00:03.835Z,1004.9231
2023-05-12T11:01:05.055Z,1044.3846
2023-05-12T11:02:06.975Z,1085.6923
2023-05-12T11:03:10.441Z,1072.8462
2023-05-12T11:04:09.410Z,1026.0769
2023-05-12T11:05:11.223Z,1004.6923
2023-05-12T11:06:12.806Z,1023.2308
2023-05-12T11:07:14.707Z,1048.9231
2023-05-12T11:08:16.061Z,1101.6154
2023-05-12T11:09:18.002Z,1070.8462
2023-05-12T11:10:19.706Z,1030.6154
2023-05-12T11:11:20.870Z,1013.9231
2023-05-12T11:12:22.583Z,1026.6154
2023-05-12T11:13:24.192Z,1054.8462
2023-05-12T11:14:25.819Z,1109.2307
2023-05-12T11:15:27.491Z,1064.3846
2023-05-12T11:16:29.155Z,1040.1538
2023-05-12T11:17:30.784Z,1020.8461
2023-05-12T11:18:32.442Z,1039.8462
2023-05-12T11:19:34.074Z,1082.4615
2023-05-12T11:20:35.628Z,1105.0000
2023-05-12T11:21:37.371Z,1047.5385
2023-05-12T11:22:38.979Z,1029.9231
2023-05-12T11:23:40.704Z,1017.3077
2023-05-12T11:24:42.298Z,1044.3077
2023-05-12T11:25:44.451Z,1103.3077
2023-05-12T11:26:45.620Z,1079.1538
2023-05-12T11:27:47.598Z,1036.8462
2023-05-12T11:28:48.913Z,1020.5385
2023-05-12T11:29:52.368Z,1022.5385
2023-05-12T11:30:54.699Z,1057.0000
2023-05-12T11:31:53.876Z,1102.6923
2023-05-12T11:32:55.429Z,1080.1538
2023-05-12T11:34:10.846Z,1078.4615
2023-05-12T11:34:58.801Z,1172.0000
2023-05-12T11:36:00.464Z,1272.0000
2023-05-12T11:37:02.067Z,1332.5385
2023-05-12T11:38:03.742Z,1363.6154
2023-05-12T11:39:05.387Z,1306.9231
2023-05-12T11:40:07.090Z,1304.0000
2023-05-12T11:41:08.620Z,1690.6154
2023-05-12T11:42:13.433Z,2211.2307
2023-05-12T11:43:12.047Z,2326.8462
2023-05-12T11:44:13.663Z,2394.6924
2023-05-12T11:45:15.254Z,1977.6154
2023-05-12T11:46:17.011Z,1669.5385
2023-05-12T11:47:18.588Z,1658.6923
2023-05-12T11:48:20.339Z,1861.8462
2023-05-12T11:49:22.293Z,1850.6923
2023-05-12T11:50:23.568Z,1993.8462
2023-05-12T11:51:25.120Z,1710.5385
2023-05-12T11:52:26.806Z,1596.7693
2023-05-12T11:53:28.499Z,1512.0769